WALL/BPN METAR and TAF weather

Enter ICAO airport designator
Station Type Date Time Source
WALL METAR 2022/05/23 15:30 UTC NOAA

WALL 231530Z 03003KT 9000 SCT020 27/24 Q1009 NOSIG


Station Type Date Time Source
WALL Decoded METAR 2022/05/23 15:30 UTC NOAA

Station name not available
May 23, 2022 - 11:30 AM EDT / 2022.05.23 1530 UTC
Wind: from the NNE (030 degrees) at 3 MPH (3 KT):0
Visibility: 5 mile(s):0
Sky conditions: partly cloudy
Temperature: 80 F (27 C)
Dew Point: 75 F (24 C)
Relative Humidity: 83%
Pressure (altimeter): 29.80 in. Hg (1009 hPa)
ob: WALL 231530Z 03003KT 9000 SCT020 27/24 Q1009 NOSIG
cycle: 15

Station Type Date Time Source
WALL TAF 2022/05/23 18:00 UTC NOAA

TAF WALL 231700Z 2318/2424 04003KT 9000 SCT020

Example: see airport list